Time;durP1;ratioP1;P1;durP2;ratioP2;P2;SDS_P1;SDS_P2;PMS_P1;PMS_P2;Temp;Humidity;BMP_temperature;BMP_pressure;BME280_temperature;BME280_humidity;BME280_pressure;Samples;Min_cycle;Max_cycle;Signal;HPM_P1;HPM_P2
2023/09/08 00:03:00;;;;;;;12.00;7.97;;;;;;;15.83;66.40;100926.28;30967238;28;97618;-63
2023/09/08 00:18:00;;;;;;;10.05;7.40;;;;;;;15.68;66.67;100902.09;30964344;28;107057;-74
2023/09/08 00:33:00;;;;;;;12.75;8.77;;;;;;;15.48;67.22;100908.00;30964580;28;97778;-66
2023/09/08 00:48:01;;;;;;;10.48;8.35;;;;;;;15.33;68.20;100904.50;30962124;28;114815;-64
2023/09/08 01:03:02;;;;;;;13.02;8.20;;;;;;;15.13;68.59;100910.41;30961825;28;97473;-64
2023/09/08 01:18:03;;;;;;;9.93;8.27;;;;;;;15.00;69.37;100894.09;30959834;28;97179;-65
2023/09/08 01:33:04;;;;;;;14.27;9.25;;;;;;;14.79;69.81;100892.06;30959314;28;97401;-72
2023/09/08 01:48:04;;;;;;;11.38;8.82;;;;;;;14.65;70.35;100886.50;30967783;28;97162;-67
2023/09/08 02:03:04;;;;;;;10.00;8.00;;;;;;;14.49;70.70;100886.59;30978054;28;97198;-75
2023/09/08 02:18:07;;;;;;;11.55;9.02;;;;;;;14.33;71.50;100891.06;30976799;28;104582;-62
2023/09/08 02:33:07;;;;;;;14.43;9.20;;;;;;;14.22;71.90;100886.13;30976270;28;96871;-61
2023/09/08 02:48:07;;;;;;;14.80;9.65;;;;;;;14.08;72.53;100879.66;30972727;28;97001;-69
2023/09/08 03:03:08;;;;;;;18.15;10.68;;;;;;;13.99;72.68;100865.47;30970550;28;97520;-64
2023/09/08 03:18:08;;;;;;;23.45;11.48;;;;;;;13.83;72.88;100860.19;30968426;28;107946;-62
2023/09/08 03:33:08;;;;;;;16.33;12.75;;;;;;;13.75;73.63;100865.59;30966015;28;113797;-73
2023/09/08 03:48:09;;;;;;;15.15;11.43;;;;;;;13.45;73.90;100860.03;30964263;28;104520;-67
2023/09/08 04:03:11;;;;;;;15.93;11.45;;;;;;;13.34;74.43;100861.19;30965881;28;97132;-75
2023/09/08 04:18:11;;;;;;;16.77;13.40;;;;;;;13.23;74.67;100861.56;30961456;28;97336;-65
2023/09/08 04:33:12;;;;;;;18.00;12.40;;;;;;;13.25;75.22;100851.56;30959691;28;99923;-69
2023/09/08 04:48:12;;;;;;;14.90;11.93;;;;;;;13.42;75.52;100855.84;30957943;28;98897;-76
2023/09/08 05:03:12;;;;;;;16.17;11.63;;;;;;;13.83;75.66;100855.69;30957135;28;97222;-73
2023/09/08 05:18:13;;;;;;;13.50;11.93;;;;;;;14.26;75.35;100854.44;30959710;28;111902;-76
2023/09/08 05:33:13;;;;;;;18.25;13.05;;;;;;;14.86;75.66;100856.31;30976996;28;114615;-72
2023/09/08 05:48:13;;;;;;;14.45;11.32;;;;;;;15.68;74.49;100862.63;30975211;28;112135;-72
2023/09/08 06:03:14;;;;;;;19.00;11.80;;;;;;;16.36;74.15;100867.75;30972175;28;104755;-73
2023/09/08 06:18:14;;;;;;;18.55;10.82;;;;;;;17.14;72.37;100858.91;30971979;28;96727;-74
2023/09/08 06:33:14;;;;;;;15.02;11.35;;;;;;;17.92;72.52;100855.97;30969783;28;97235;-77
2023/09/08 06:48:15;;;;;;;16.42;12.20;;;;;;;18.71;70.23;100874.34;30967421;28;113849;-65
2023/09/08 07:03:16;;;;;;;17.77;13.27;;;;;;;19.68;67.86;100873.78;30967995;28;97109;-67
2023/09/08 07:18:16;;;;;;;24.00;15.68;;;;;;;20.43;66.48;100874.03;30965577;28;97350;-74
2023/09/08 07:33:16;;;;;;;20.00;14.38;;;;;;;21.62;63.55;100872.34;30966103;28;110828;-78
2023/09/08 07:48:17;;;;;;;15.53;13.30;;;;;;;22.03;61.58;100883.53;30960788;28;98007;-71
2023/09/08 08:03:17;;;;;;;15.00;12.57;;;;;;;23.34;59.35;100882.69;30961962;28;96819;-77
2023/09/08 08:18:17;;;;;;;;;;;;;;;24.90;55.67;100879.09;30960497;28;96958;-75
2023/09/08 08:33:19;;;;;;;16.50;11.07;;;;;;;26.72;50.97;100864.56;30961257;28;97198;-66
2023/09/08 08:48:21;;;;;;;13.00;10.37;;;;;;;29.33;45.72;100868.97;30959635;28;97915;-75
2023/09/08 09:03:26;;;;;;;14.20;9.03;;;;;;;37.96;31.00;100848.28;30955941;28;96867;-69
2023/09/08 09:18:29;;;;;;;11.30;7.37;;;;;;;45.85;21.79;100847.91;30955320;28;97780;-74
2023/09/08 09:33:30;;;;;;;8.40;6.20;;;;;;;49.57;17.96;100833.72;30954066;28;97157;-76
2023/09/08 09:48:30;;;;;;;7.57;6.60;;;;;;;52.28;14.82;100825.84;30952268;28;96821;-73
2023/09/08 10:03:32;;;;;;;6.97;5.18;;;;;;;53.31;13.09;100800.72;30953713;28;97138;-73
2023/09/08 10:18:33;;;;;;;9.77;5.77;;;;;;;55.60;11.47;100786.66;30972676;28;97376;-78
2023/09/08 10:33:35;;;;;;;7.17;4.70;;;;;;;56.90;10.62;100781.91;30971761;28;97367;-71
2023/09/08 10:48:43;;;;;;;5.30;3.80;;;;;;;57.47;9.64;100769.03;30968792;28;97467;-75
2023/09/08 11:03:47;;;;;;;7.37;4.30;;;;;;;57.37;9.16;100748.22;30970561;28;97662;-68
2023/09/08 11:18:50;;;;;;;5.60;4.27;;;;;;;59.37;8.05;100742.22;30966651;28;97589;-76
2023/09/08 11:33:54;;;;;;;6.50;3.70;;;;;;;59.04;7.70;100732.56;30964991;28;97432;-63
2023/09/08 11:48:56;;;;;;;6.00;4.07;;;;;;;58.46;7.47;100720.59;30962419;28;96756;-68
2023/09/08 12:03:57;;;;;;;5.47;3.50;;;;;;;55.45;8.92;100695.88;30960285;28;97580;-70
2023/09/08 12:18:58;;;;;;;6.37;3.83;;;;;;;47.44;13.55;100680.31;30958979;28;97339;-68
2023/09/08 12:33:58;;;;;;;8.02;4.53;;;;;;;41.96;17.10;100679.88;30957075;28;97321;-68
2023/09/08 12:48:58;;;;;;;7.00;5.70;;;;;;;40.27;18.45;100669.53;30956976;28;96730;-74
2023/09/08 13:03:59;;;;;;;4.82;3.58;;;;;;;38.53;19.72;100651.88;30956265;28;99911;-76
2023/09/08 13:18:59;;;;;;;4.90;3.58;;;;;;;37.40;20.86;100652.06;30954589;28;112341;-77
2023/09/08 13:34:00;;;;;;;4.70;3.83;;;;;;;35.69;22.47;100631.78;30954981;28;97613;-78
2023/09/08 13:49:00;;;;;;;6.65;3.20;;;;;;;33.94;23.80;100612.13;30969274;28;97048;-76
2023/09/08 14:04:01;;;;;;;5.13;3.80;;;;;;;33.68;24.45;100596.25;30973157;28;97164;-76
2023/09/08 14:19:01;;;;;;;5.00;3.33;;;;;;;33.34;25.13;100592.13;30975270;28;96773;-78
2023/09/08 14:34:03;;;;;;;5.20;3.50;;;;;;;32.61;25.95;100585.78;30975060;28;97363;-77
2023/09/08 14:49:03;;;;;;;5.17;3.30;;;;;;;31.77;26.34;100584.94;30971141;28;97224;-77
2023/09/08 15:04:04;;;;;;;6.32;3.45;;;;;;;30.69;27.31;100580.03;30969023;28;100652;-64
2023/09/08 15:19:04;;;;;;;5.28;3.17;;;;;;;29.73;28.21;100577.25;30966551;28;97260;-68
2023/09/08 15:34:07;;;;;;;5.85;3.47;;;;;;;28.87;29.72;100575.72;30964141;28;105112;-72
2023/09/08 15:49:07;;;;;;;5.47;3.13;;;;;;;28.26;30.79;100561.19;30962202;28;97706;-67
2023/09/08 16:04:09;;;;;;;5.80;3.42;;;;;;;27.84;31.99;100557.75;30959707;28;96734;-68
2023/09/08 16:19:11;;;;;;;6.00;3.43;;;;;;;27.05;33.43;100550.91;30958980;28;97255;-72
2023/09/08 16:34:11;;;;;;;6.50;3.90;;;;;;;26.48;34.85;100543.38;30957527;28;97460;-73
2023/09/08 16:49:12;;;;;;;6.97;4.30;;;;;;;26.09;36.28;100548.41;30956910;28;97268;-68
2023/09/08 17:04:12;;;;;;;13.57;5.68;;;;;;;25.54;38.13;100543.13;30956637;28;98120;-73
2023/09/08 17:19:12;;;;;;;15.07;5.15;;;;;;;24.81;40.72;100541.66;30969402;28;97407;-75
2023/09/08 17:34:20;;;;;;;20.77;6.30;;;;;;;24.09;43.30;100548.13;30979417;28;100653;-73
2023/09/08 17:49:20;;;;;;;27.83;8.10;;;;;;;23.44;45.60;100555.84;30975546;28;96833;-72
2023/09/08 18:04:21;;;;;;;18.58;7.20;;;;;;;22.84;47.84;100555.34;30975559;28;96779;-71
2023/09/08 18:19:21;;;;;;;11.00;6.18;;;;;;;22.33;49.99;100559.72;30974272;28;96782;-67
2023/09/08 18:34:22;;;;;;;13.63;7.03;;;;;;;21.84;51.79;100571.66;30970429;28;105987;-67
2023/09/08 18:49:22;;;;;;;17.73;7.50;;;;;;;21.38;53.17;100570.53;30969306;28;97577;-62
2023/09/08 19:04:22;;;;;;;20.13;7.57;;;;;;;21.01;54.36;100573.38;30970418;28;96668;-62
2023/09/08 19:19:23;;;;;;;17.50;7.87;;;;;;;20.58;55.76;100573.28;30967756;28;96909;-68
2023/09/08 19:34:23;;;;;;;11.27;6.32;;;;;;;20.31;56.99;100570.06;30966356;28;110959;-73
2023/09/08 19:49:24;;;;;;;14.88;7.20;;;;;;;19.98;58.01;100570.44;30965429;28;97443;-67
2023/09/08 20:04:24;;;;;;;12.50;7.40;;;;;;;19.67;58.94;100575.69;30964085;28;114309;-67
2023/09/08 20:19:24;;;;;;;11.00;7.30;;;;;;;19.48;60.13;100577.50;30962150;28;112308;-64
2023/09/08 20:34:25;;;;;;;18.88;8.48;;;;;;;19.30;60.64;100575.56;30961027;28;96794;-68
2023/09/08 20:49:25;;;;;;;17.17;7.72;;;;;;;19.05;61.36;100578.19;30959678;28;96835;-73
2023/09/08 21:04:25;;;;;;;13.45;8.63;;;;;;;18.83;61.75;100572.28;30960069;28;105356;-70
2023/09/08 21:19:28;;;;;;;16.00;8.88;;;;;;;18.55;62.28;100585.06;30958969;28;97528;-64
2023/09/08 21:34:29;;;;;;;14.93;9.03;;;;;;;18.30;62.99;100570.59;30958489;28;97104;-68
2023/09/08 21:49:31;;;;;;;18.90;9.88;;;;;;;17.99;63.21;100580.22;30957713;28;97158;-70
2023/09/08 22:04:31;;;;;;;11.13;8.10;;;;;;;17.71;64.31;100571.28;30966041;28;98022;-74
2023/09/08 22:19:31;;;;;;;17.63;9.60;;;;;;;17.65;64.93;100584.78;30976845;28;97842;-73
2023/09/08 22:34:32;;;;;;;10.20;8.30;;;;;;;17.33;65.45;100571.06;30975006;28;97018;-70
2023/09/08 22:49:33;;;;;;;13.52;9.40;;;;;;;17.13;66.02;100563.81;30973085;28;101879;-71
2023/09/08 23:04:33;;;;;;;15.37;9.90;;;;;;;17.07;66.99;100559.22;30973783;28;97080;-72
2023/09/08 23:19:34;;;;;;;13.23;9.88;;;;;;;17.05;67.39;100561.31;30972052;28;97688;-73
2023/09/08 23:34:34;;;;;;;18.40;10.93;;;;;;;16.92;67.69;100545.94;30969873;28;109149;-63
2023/09/08 23:49:35;;;;;;;13.75;9.77;;;;;;;16.74;68.23;100541.97;30967775;28;96768;-69
